Niles, MI (49120)

10:11 PM EDT en Septiembre 21, 2014 (GMT -0400)
Niles NWS Meso Net | Change Station
CLOSE
Current Station
Estación meteorológica personal
Location: Niles, MI
Altura: 820 ft
Estaciones meteorológicas cercanas

Alt 820 ft 41.84 °N, 86.28 °W | Updated 9 seconds ago

Nublado
Nublado
55.0 ° F
Sensación térmica 55.0 ° F
N
3.0
Viento Variable Viento desde Norte
Gusts 11.0 mph

Hoy
Alta -- | Baja -- ° F
--% Posibilidad de precipitaciones
Ayer
Alta -- | Baja -- ° F
Precip. -- pul
7:31 AM 7:44 PM
Creciente menguante, 4% visible
Presión 30.08 pul
Visibilidad 10.0 Millas
Nubes Nublado 4900 ft
Punto de rocío 49 ° F
Humedad 80%
Precipitaciones 0.12 pul
Espesor de la nieve No disponible.
UV 0 de una escala de 12
Polen 3.20 de una escala de 12
Ozono Buena
PM2.5 Buena
Flu Activity No disponible.
METAR KSBN 220154Z 34012KT 10SM OVC049 13/08 A3008 RMK AO2 SLP185 T01280083

More Conditions Fewer Conditions

Presión 30.08 pul
Visibilidad 10.0 Millas
Nubes Nublado 4900 ft
Punto de rocío 49 ° F
Humedad 80%
Precipitaciones 0.12 pul
Espesor de la nieve No disponible.
UV 0 de una escala de 12
Polen 3.20 de una escala de 12
Ozono Buena
PM2.5 Buena
Flu Activity No disponible.
METAR KSBN 220154Z 34012KT 10SM OVC049 13/08 A3008 RMK AO2 SLP185 T01280083

More Conditions Fewer Conditions

10-Day Weather Forecast

Almanac

Astronomía

Sep. 21, 2014 Salida Puesta
Hora real 7:31 AM EDT 7:44 PM EDT
Crepúsculo civil 7:03 AM EDT 8:11 PM EDT
Crepúsculo náutico 6:30 AM EDT 8:44 PM EDT
Crepúsculo astronómico 5:57 AM EDT 9:17 PM EDT
Luna 5:02 AM EDT (9/21) 6:21 PM EDT (9/21)
Horas de luz 13h 08m
Horas de luz
12h 12m
Tomorrow will be 2m 48s shorter.
Creciente menguante, 4% of the Moon is Illuminated
Hoy
Creciente menguante
Sep 24
Nueva
Oct 1
Cuarto creciente
Oct 8
Luna llena
Oct 15
Cuarto menguante

Extremos de hoy

Máximos del estado Bajos del estado

Community

WunderPhotos

Upload Photos

1,755,347 ¡fotos cargadas!

WunderBlogs® & News

Nearby

Calidad del aire

  Calidad del aire Índice AQ Contaminante
Ayer Moderada
PM2.5
Ayer Buena
OZONE
Real Buena
OZONE
Real Buena
PM2.5
Domingo Buena
OZONE
Domingo Buena
PM2.5
Lunes Buena
OZONE
Lunes Buena
PM2.5

Grosos de nieve

Estación Profundido Altura
No tenemos constancia de nieve nueva.

Actividad de terremotos

Ciudad Distance Mag. Tiempo y dato
No hay informes recientes de la actividad sísmica.
Magnitud mínima muestra es 2,5.

Temperaturas de aguas costeras

Lugar Temperatura
Holland, MI 61.0 ° F

Estaciones meteorológicas cercanas